Terminal Aerodrome Forecast
Issued by NWS

Home | Current Version | Previous Version | Text Only | Print | Product List | Glossary On
Versions: 1 2 3 4 5 6 7 8 9 10 11 12 13 14 15 16 17 18 19 20 21 22 23 24
000
FTUS41 KRLX 210917 AAB
TAFCKB
TAF AMD
KCKB 210917Z 2109/2206 19008KT P6SM SCT060 WS020/18040KT
     FM211900 25010G19KT 5SM SHRA BKN025
     FM212300 34007KT P6SM SHRA OVC015
     FM220400 01005KT P6SM SHRA OVC008=

USA.gov is the U.S. government's official web portal to all federal, state and local government web resources and services.